Time;durP1;ratioP1;P1;durP2;ratioP2;P2;SDS_P1;SDS_P2;PMS_P1;PMS_P2;Temp;Humidity;BMP_temperature;BMP_pressure;BME280_temperature;BME280_humidity;BME280_pressure;Samples;Min_cycle;Max_cycle;Signal;HPM_P1;HPM_P2
2023/10/20 00:02:27;;;;;;;16.40;10.35;;;;;;;18.59;80.95;98615.56;5010906;28;20034;-45
2023/10/20 00:04:53;;;;;;;18.30;10.90;;;;;;;18.18;82.99;98604.56;5011499;28;20050;-50
2023/10/20 00:07:20;;;;;;;17.75;10.35;;;;;;;18.54;81.92;98598.25;5011791;28;20049;-47
2023/10/20 00:09:45;;;;;;;18.65;10.50;;;;;;;18.64;80.96;98592.41;5011771;28;20034;-49
2023/10/20 00:12:11;;;;;;;16.92;10.07;;;;;;;18.54;81.92;98587.69;5011601;28;20060;-48
2023/10/20 00:14:36;;;;;;;17.60;10.10;;;;;;;18.33;82.58;98596.78;5011640;28;20038;-44
2023/10/20 00:17:02;;;;;;;18.38;10.90;;;;;;;18.39;82.33;98589.38;5011867;28;20046;-40
2023/10/20 00:19:27;;;;;;;17.92;10.00;;;;;;;18.37;82.58;98585.97;5011813;28;20113;-44
2023/10/20 00:21:52;;;;;;;18.23;11.10;;;;;;;18.18;83.24;98583.47;5012304;28;20041;-44
2023/10/20 00:24:18;;;;;;;16.05;10.30;;;;;;;18.13;83.97;98584.66;5014812;28;20049;-49
2023/10/20 00:26:43;;;;;;;17.08;10.48;;;;;;;18.60;81.21;98590.03;5014469;28;20034;-47
2023/10/20 00:29:09;;;;;;;17.23;10.48;;;;;;;18.23;82.81;98593.78;5011387;28;20048;-46
2023/10/20 00:31:34;;;;;;;17.77;11.18;;;;;;;18.17;82.65;98596.75;5010883;28;20065;-45
2023/10/20 00:34:00;;;;;;;18.63;11.30;;;;;;;18.31;82.59;98590.72;5011212;28;20042;-46
2023/10/20 00:36:27;;;;;;;16.00;10.65;;;;;;;18.58;81.41;98583.97;5010964;28;20663;-46
2023/10/20 00:38:53;;;;;;;17.10;10.88;;;;;;;18.56;81.21;98585.84;5011251;28;20424;-48
2023/10/20 00:41:18;;;;;;;17.38;10.88;;;;;;;18.48;81.68;98577.47;5009787;28;20044;-46
2023/10/20 00:43:43;;;;;;;17.13;11.15;;;;;;;18.42;81.85;98576.00;5011122;28;20117;-44
2023/10/20 00:46:10;;;;;;;18.20;11.20;;;;;;;18.55;81.47;98561.22;5009862;28;20036;-46
2023/10/20 00:48:35;;;;;;;17.85;11.25;;;;;;;18.47;81.82;98554.66;5011074;28;20060;-46
2023/10/20 00:51:01;;;;;;;17.38;11.60;;;;;;;18.54;81.12;98554.22;5011391;28;20038;-45
2023/10/20 00:53:28;;;;;;;18.25;11.35;;;;;;;18.29;82.57;98551.25;5011257;28;20141;-45
2023/10/20 00:55:56;;;;;;;19.13;11.00;;;;;;;18.45;81.54;98538.06;5010919;28;20451;-45
2023/10/20 00:58:23;;;;;;;16.88;11.23;;;;;;;18.10;82.65;98532.09;5011106;28;20120;-44
2023/10/20 01:00:48;;;;;;;18.33;11.13;;;;;;;18.15;82.66;98535.31;5011798;28;20057;-47
2023/10/20 01:03:14;;;;;;;18.00;11.82;;;;;;;17.87;84.24;98532.47;5011702;28;20053;-45
2023/10/20 01:05:39;;;;;;;20.92;11.75;;;;;;;18.24;83.24;98529.53;5011978;28;20030;-47
2023/10/20 01:08:05;;;;;;;20.05;11.50;;;;;;;18.27;82.75;98532.03;5015129;28;20420;-44
2023/10/20 01:10:30;;;;;;;16.92;11.13;;;;;;;18.27;82.11;98534.66;5011248;28;20373;-45
2023/10/20 01:12:56;;;;;;;17.17;11.13;;;;;;;18.36;82.39;98547.31;5011320;28;20496;-45
2023/10/20 01:15:21;;;;;;;18.48;11.80;;;;;;;18.43;82.10;98547.84;5010190;28;20066;-44
2023/10/20 01:17:46;;;;;;;18.23;11.90;;;;;;;17.90;84.42;98543.69;5010931;28;20057;-48
2023/10/20 01:20:12;;;;;;;20.55;12.48;;;;;;;18.03;83.63;98536.84;5010870;28;20107;-46
2023/10/20 01:22:38;;;;;;;19.55;12.35;;;;;;;18.28;82.95;98523.19;5009862;28;20040;-44
2023/10/20 01:25:04;;;;;;;17.95;11.80;;;;;;;18.08;83.67;98526.91;5010219;28;20034;-49
2023/10/20 01:27:29;;;;;;;18.17;11.57;;;;;;;18.55;80.76;98511.09;5010195;28;20038;-47
2023/10/20 01:29:54;;;;;;;19.08;11.55;;;;;;;18.32;82.50;98511.50;5010392;28;20034;-45
2023/10/20 01:32:20;;;;;;;18.52;11.90;;;;;;;18.23;82.43;98512.03;5009529;28;20037;-44
2023/10/20 01:34:45;;;;;;;19.27;11.90;;;;;;;18.21;82.70;98504.19;5008539;28;20061;-48
2023/10/20 01:37:14;;;;;;;18.55;11.75;;;;;;;18.50;80.76;98501.72;5010009;28;20045;-43
2023/10/20 01:39:39;;;;;;;20.42;12.23;;;;;;;18.14;82.85;98487.00;5010215;28;20041;-45
2023/10/20 01:42:05;;;;;;;17.38;11.85;;;;;;;18.42;81.30;98491.59;5010653;28;20177;-47
2023/10/20 01:44:30;;;;;;;20.02;12.00;;;;;;;18.17;82.58;98483.34;5010966;28;20034;-44
2023/10/20 01:46:55;;;;;;;18.15;11.50;;;;;;;18.17;82.79;98478.09;5011942;28;20042;-46
2023/10/20 01:49:21;;;;;;;19.17;11.27;;;;;;;18.22;82.08;98474.25;5010658;28;20038;-45
2023/10/20 01:51:46;;;;;;;18.67;11.77;;;;;;;18.29;81.83;98460.72;5010408;28;20044;-45
2023/10/20 01:54:12;;;;;;;19.33;12.15;;;;;;;18.22;82.81;98468.13;5009993;28;20500;-46
2023/10/20 01:56:37;;;;;;;18.88;11.90;;;;;;;18.28;81.76;98451.09;5009984;28;20096;-44
2023/10/20 01:59:03;;;;;;;18.40;12.20;;;;;;;18.16;83.23;98460.56;5008699;28;20038;-44
2023/10/20 02:01:29;;;;;;;19.15;11.73;;;;;;;18.19;81.98;98460.38;5010016;28;20042;-45
2023/10/20 02:03:54;;;;;;;19.35;11.98;;;;;;;18.14;82.60;98458.00;5011722;28;20045;-48
2023/10/20 02:06:19;;;;;;;19.27;11.98;;;;;;;18.49;81.45;98456.00;5010948;28;20062;-45
2023/10/20 02:08:45;;;;;;;21.90;12.35;;;;;;;18.36;81.56;98438.34;5011432;28;20107;-46
2023/10/20 02:11:10;;;;;;;19.13;12.30;;;;;;;18.27;81.53;98436.22;5011025;28;20037;-44
2023/10/20 02:13:38;;;;;;;19.27;11.80;;;;;;;18.45;81.65;98419.34;5009387;28;20038;-45
2023/10/20 02:16:06;;;;;;;19.48;11.77;;;;;;;18.37;81.59;98417.13;5009774;28;20048;-45
2023/10/20 02:18:31;;;;;;;18.77;11.52;;;;;;;18.16;81.63;98405.19;5009485;28;20503;-45
2023/10/20 02:21:03;;;;;;;18.85;12.48;;;;;;;18.05;82.91;98403.13;5010158;28;20030;-49
2023/10/20 02:23:34;;;;;;;19.23;12.15;;;;;;;18.19;82.79;98397.94;5009385;28;20460;-50
2023/10/20 02:26:05;;;;;;;18.90;11.40;;;;;;;18.46;80.85;98379.69;5013490;28;20045;-45
2023/10/20 02:28:34;;;;;;;19.13;12.07;;;;;;;18.34;81.43;98374.25;5013294;28;20095;-44
2023/10/20 02:31:01;;;;;;;18.00;11.95;;;;;;;18.55;80.65;98373.88;5013597;28;20061;-50
2023/10/20 02:33:27;;;;;;;20.17;12.65;;;;;;;18.16;81.86;98384.94;5013026;28;20120;-46
2023/10/20 02:35:54;;;;;;;20.42;12.60;;;;;;;18.38;81.03;98376.63;5012371;28;20037;-46
2023/10/20 02:38:20;;;;;;;20.55;11.82;;;;;;;18.42;80.69;98382.59;5013313;28;20128;-48
2023/10/20 02:40:49;;;;;;;18.67;12.07;;;;;;;18.29;81.63;98373.69;5013414;28;20177;-45
2023/10/20 02:43:15;;;;;;;17.90;11.85;;;;;;;18.27;81.52;98372.91;5013095;28;20042;-44
2023/10/20 02:45:53;;;;;;;22.25;12.48;;;;;;;18.09;82.01;98370.41;5013383;28;20033;-46
2023/10/20 02:48:19;;;;;;;19.63;12.77;;;;;;;18.13;82.51;98371.91;5012997;28;20044;-46
2023/10/20 02:50:45;;;;;;;20.45;12.43;;;;;;;18.30;81.18;98360.38;5013155;28;20030;-50
2023/10/20 02:53:11;;;;;;;19.98;13.02;;;;;;;17.56;83.86;98351.44;5013133;28;20038;-45
2023/10/20 02:55:39;;;;;;;19.95;13.30;;;;;;;18.39;81.50;98354.59;5012529;28;20508;-48
2023/10/20 02:58:04;;;;;;;19.40;13.02;;;;;;;18.30;81.35;98355.09;5013211;28;20408;-46
2023/10/20 03:00:30;;;;;;;22.05;14.43;;;;;;;18.23;81.55;98349.38;5012815;28;20026;-47
2023/10/20 03:02:55;;;;;;;22.13;13.85;;;;;;;18.15;81.93;98341.03;5012931;28;20038;-47
2023/10/20 03:05:20;;;;;;;22.17;14.13;;;;;;;18.25;81.43;98333.44;5012237;28;20022;-46
2023/10/20 03:07:49;;;;;;;21.10;13.63;;;;;;;18.59;79.75;98335.00;5013100;28;20044;-46
2023/10/20 03:10:15;;;;;;;21.70;14.40;;;;;;;18.42;80.48;98340.38;5012622;28;20518;-48
2023/10/20 03:12:40;;;;;;;22.70;14.52;;;;;;;18.28;80.91;98335.06;5012571;28;20038;-45
2023/10/20 03:15:07;;;;;;;27.98;15.50;;;;;;;18.17;80.99;98333.06;5015857;28;20046;-47
2023/10/20 03:17:33;;;;;;;24.63;15.23;;;;;;;18.01;80.95;98322.50;5016304;28;20049;-44
2023/10/20 03:19:58;;;;;;;26.75;15.65;;;;;;;18.19;80.88;98318.81;5013545;28;20044;-45
2023/10/20 03:22:23;;;;;;;23.35;14.98;;;;;;;18.37;79.65;98313.41;5012284;28;20096;-45
2023/10/20 03:24:49;;;;;;;27.63;15.98;;;;;;;18.46;79.44;98318.16;5012310;28;20060;-44
2023/10/20 03:27:14;;;;;;;26.98;15.80;;;;;;;17.87;81.55;98314.53;5010589;28;20180;-46
2023/10/20 03:29:39;;;;;;;25.17;15.77;;;;;;;18.09;80.15;98308.91;5012723;28;20037;-49
2023/10/20 03:32:05;;;;;;;24.75;14.95;;;;;;;18.22;79.31;98308.09;5010990;28;20040;-47
2023/10/20 03:34:34;;;;;;;26.20;15.85;;;;;;;18.06;79.98;98317.81;5012067;28;20082;-44
2023/10/20 03:37:00;;;;;;;26.20;15.70;;;;;;;18.09;80.23;98315.03;5012339;28;20037;-46
2023/10/20 03:39:27;;;;;;;26.58;15.23;;;;;;;18.30;78.56;98312.91;5012825;28;20572;-47
2023/10/20 03:41:53;;;;;;;28.20;15.50;;;;;;;18.10;79.21;98314.09;5012815;28;20377;-47
2023/10/20 03:44:21;;;;;;;28.23;15.55;;;;;;;18.17;79.19;98311.94;5011974;28;20048;-48
2023/10/20 03:46:49;;;;;;;26.55;15.85;;;;;;;18.02;79.06;98310.19;5012943;28;20036;-46
2023/10/20 03:49:18;;;;;;;26.30;15.52;;;;;;;18.02;79.12;98303.13;5012264;28;20038;-50
2023/10/20 03:51:50;;;;;;;25.80;15.45;;;;;;;17.62;80.40;98301.91;5012637;28;20026;-47
2023/10/20 03:54:16;;;;;;;27.83;15.82;;;;;;;17.86;79.68;98296.19;5010513;28;20121;-45
2023/10/20 03:56:42;;;;;;;25.92;15.15;;;;;;;18.04;78.57;98287.22;5012350;28;20504;-41
2023/10/20 03:59:09;;;;;;;26.73;15.52;;;;;;;17.43;80.02;98282.78;5012964;28;20440;-47
2023/10/20 04:01:34;;;;;;;26.60;15.00;;;;;;;17.57;79.80;98276.69;5012878;28;20069;-44
2023/10/20 04:04:00;;;;;;;28.35;15.30;;;;;;;17.62;79.03;98272.94;5012484;28;20113;-46
2023/10/20 04:06:26;;;;;;;24.50;14.40;;;;;;;17.83;78.25;98268.22;5011644;28;20519;-46
2023/10/20 04:08:51;;;;;;;27.67;14.73;;;;;;;17.61;78.55;98271.22;5011939;28;20109;-47
2023/10/20 04:11:17;;;;;;;27.70;15.32;;;;;;;17.33;79.07;98271.88;5010998;28;20042;-49
2023/10/20 04:13:42;;;;;;;30.15;14.95;;;;;;;17.52;78.56;98270.84;5010792;28;20053;-45
2023/10/20 04:16:12;;;;;;;29.40;15.27;;;;;;;17.35;79.22;98258.63;5011466;28;20107;-46
2023/10/20 04:18:38;;;;;;;29.23;15.73;;;;;;;17.09;79.97;98253.94;5011137;28;20034;-47
2023/10/20 04:21:04;;;;;;;26.30;15.07;;;;;;;17.35;78.37;98248.09;5011775;28;20037;-51
2023/10/20 04:23:30;;;;;;;27.42;14.48;;;;;;;17.34;78.60;98231.44;5010904;28;20065;-47
2023/10/20 04:25:55;;;;;;;26.85;14.63;;;;;;;17.33;78.55;98237.63;5011347;28;20412;-49
2023/10/20 04:29:07;;;;;;;28.55;14.88;;;;;;;17.37;77.52;98235.69;5010766;28;20064;-47
2023/10/20 04:44:58;;;;;;;28.67;14.60;;;;;;;16.99;77.73;98237.81;5011095;28;20022;-46
2023/10/20 04:58:24;;;;;;;30.27;14.68;;;;;;;16.51;79.19;98204.44;5010671;28;20053;-45
2023/10/20 05:01:01;;;;;;;29.85;14.77;;;;;;;16.50;78.67;98208.84;5011166;28;20030;-45
2023/10/20 05:03:45;;;;;;;29.60;14.25;;;;;;;16.74;77.96;98211.13;5010238;28;20467;-51
2023/10/20 05:06:20;;;;;;;29.70;14.98;;;;;;;16.61;77.99;98195.13;5010880;28;20088;-49
2023/10/20 05:08:46;;;;;;;28.92;14.35;;;;;;;16.63;77.99;98193.28;5010281;28;20454;-47
2023/10/20 05:11:12;;;;;;;25.45;13.98;;;;;;;16.28;78.83;98195.13;5010583;28;20381;-47
2023/10/20 05:13:37;;;;;;;27.92;14.45;;;;;;;16.52;77.90;98177.19;5009480;28;20045;-45
2023/10/20 05:16:03;;;;;;;27.20;14.07;;;;;;;16.15;79.08;98170.41;5010328;28;20500;-46
2023/10/20 05:18:29;;;;;;;30.08;14.40;;;;;;;15.78;80.51;98174.06;5008838;28;20415;-46
2023/10/20 05:20:55;;;;;;;27.30;14.40;;;;;;;15.97;79.87;98169.56;5010513;28;20116;-47
2023/10/20 05:23:20;;;;;;;28.35;14.10;;;;;;;15.89;80.15;98158.59;5009883;28;20121;-48
2023/10/20 05:25:47;;;;;;;29.13;14.07;;;;;;;16.03;79.31;98156.13;5010357;28;20029;-45
2023/10/20 05:28:12;;;;;;;26.02;13.57;;;;;;;16.22;78.83;98142.88;5010632;28;20412;-45
2023/10/20 05:30:42;;;;;;;26.65;13.68;;;;;;;16.11;79.16;98137.31;5012268;28;20025;-48
2023/10/20 05:33:09;;;;;;;24.35;13.02;;;;;;;16.05;79.13;98151.63;5013811;28;20128;-48
2023/10/20 05:35:34;;;;;;;28.77;14.35;;;;;;;16.01;79.47;98147.47;5010586;28;20144;-44
2023/10/20 05:37:59;;;;;;;25.52;13.93;;;;;;;16.26;77.99;98147.03;5009006;28;20092;-50
2023/10/20 05:40:25;;;;;;;23.48;12.88;;;;;;;16.35;77.74;98150.94;5009837;28;20053;-47
2023/10/20 05:42:50;;;;;;;24.90;12.82;;;;;;;15.91;78.90;98155.91;5009981;28;20695;-45
2023/10/20 05:45:20;;;;;;;24.80;13.80;;;;;;;16.02;78.58;98156.19;5010172;28;20034;-44
2023/10/20 05:47:46;;;;;;;33.10;13.55;;;;;;;16.09;78.73;98147.91;5010364;28;20030;-44
2023/10/20 05:50:11;;;;;;;24.70;13.05;;;;;;;16.16;78.19;98140.56;5010342;28;20041;-45
2023/10/20 05:52:37;;;;;;;27.77;13.50;;;;;;;16.32;76.84;98138.81;5010206;28;20030;-45
2023/10/20 05:55:03;;;;;;;26.95;12.90;;;;;;;15.74;79.21;98135.72;5010373;28;20042;-47
2023/10/20 05:57:29;;;;;;;28.40;13.68;;;;;;;15.88;78.96;98135.88;5010042;28;20042;-46
2023/10/20 05:59:54;;;;;;;25.10;13.25;;;;;;;16.09;78.02;98129.53;5012080;28;20084;-46
2023/10/20 06:02:20;;;;;;;26.73;13.45;;;;;;;15.96;78.31;98132.84;5013346;28;20080;-43
2023/10/20 06:04:45;;;;;;;26.27;13.20;;;;;;;16.06;78.39;98128.81;5014869;28;20088;-44
2023/10/20 06:07:11;;;;;;;31.92;13.95;;;;;;;15.91;78.69;98138.34;5017947;28;20180;-46
2023/10/20 06:09:36;;;;;;;26.13;13.48;;;;;;;15.94;78.22;98138.19;5017533;28;20524;-45
2023/10/20 06:12:03;;;;;;;26.77;13.32;;;;;;;15.46;80.72;98136.25;5015135;28;20040;-45
2023/10/20 06:14:30;;;;;;;27.30;13.77;;;;;;;15.87;78.54;98134.16;5013721;28;20547;-45
2023/10/20 06:16:56;;;;;;;26.77;13.55;;;;;;;15.65;79.11;98128.31;5014304;28;20468;-46
2023/10/20 06:19:21;;;;;;;27.73;14.57;;;;;;;15.56;79.52;98137.50;5014082;28;20089;-48
2023/10/20 06:21:48;;;;;;;26.58;14.10;;;;;;;15.65;79.47;98144.09;5014029;28;20029;-43
2023/10/20 06:24:14;;;;;;;24.95;13.32;;;;;;;15.41;80.37;98136.47;5013818;28;20181;-45
2023/10/20 06:26:39;;;;;;;28.10;13.82;;;;;;;15.38;80.24;98130.50;5014554;28;20512;-46
2023/10/20 06:31:47;;;;;;;24.38;12.52;;;;;;;15.39;80.60;98134.84;5014450;28;20105;-47
2023/10/20 06:34:19;;;;;;;24.33;12.93;;;;;;;15.39;80.41;98133.06;5014103;28;20395;-45
2023/10/20 06:36:48;;;;;;;25.17;13.07;;;;;;;15.13;80.80;98133.47;5013415;28;20038;-43
2023/10/20 06:39:14;;;;;;;24.90;12.95;;;;;;;15.30;81.10;98130.06;5014241;28;20516;-45
2023/10/20 06:41:40;;;;;;;24.35;12.23;;;;;;;15.41;80.69;98114.63;5014471;28;20030;-48
2023/10/20 06:44:05;;;;;;;22.65;11.88;;;;;;;15.16;81.05;98122.00;5017123;28;20034;-46
2023/10/20 06:46:31;;;;;;;24.67;12.20;;;;;;;15.15;80.74;98117.66;5014003;28;20108;-47
2023/10/20 06:48:56;;;;;;;22.25;11.65;;;;;;;15.33;80.91;98114.16;5013661;28;20038;-45
2023/10/20 06:51:22;;;;;;;21.10;11.25;;;;;;;15.61;79.45;98126.78;5014079;28;20038;-45
2023/10/20 06:53:47;;;;;;;19.92;10.70;;;;;;;15.66;79.13;98125.63;5014368;28;20048;-44
2023/10/20 06:56:13;;;;;;;19.98;10.40;;;;;;;15.46;80.34;98115.25;5014634;28;20117;-47
2023/10/20 06:58:38;;;;;;;18.85;10.50;;;;;;;15.05;81.92;98122.53;5013738;28;20068;-43
2023/10/20 07:01:05;;;;;;;17.27;9.75;;;;;;;15.21;81.03;98122.63;5014113;28;20034;-41
2023/10/20 07:03:32;;;;;;;17.90;9.73;;;;;;;15.13;81.08;98120.38;5013042;28;20034;-43
2023/10/20 07:05:57;;;;;;;14.90;8.77;;;;;;;14.74;82.47;98127.53;5013160;28;20041;-47
2023/10/20 07:08:24;;;;;;;18.73;9.32;;;;;;;14.95;81.33;98131.75;5012211;28;20030;-46
2023/10/20 07:10:50;;;;;;;18.35;9.18;;;;;;;15.00;81.18;98127.16;5012547;28;20026;-47
2023/10/20 07:13:17;;;;;;;16.40;8.20;;;;;;;14.95;80.73;98124.72;5012038;28;20040;-47
2023/10/20 07:15:43;;;;;;;14.57;8.50;;;;;;;14.93;81.39;98108.22;5012387;28;20034;-47
2023/10/20 07:18:11;;;;;;;15.30;8.30;;;;;;;14.82;81.86;98115.75;5013883;28;20103;-45
2023/10/20 07:20:38;;;;;;;13.95;7.70;;;;;;;15.18;80.21;98115.78;5013449;28;20034;-43
2023/10/20 07:23:07;;;;;;;14.27;7.78;;;;;;;15.40;79.47;98113.78;5012314;28;20042;-45
2023/10/20 07:25:33;;;;;;;13.80;7.10;;;;;;;15.15;80.01;98115.91;5013372;28;20034;-44
2023/10/20 07:27:58;;;;;;;12.82;7.40;;;;;;;15.40;79.29;98108.53;5012597;28;20136;-46
2023/10/20 07:30:24;;;;;;;13.43;7.20;;;;;;;15.00;80.89;98114.03;5010966;28;20659;-44
2023/10/20 07:32:52;;;;;;;11.77;6.47;;;;;;;15.05;80.47;98106.78;5011063;28;20037;-44
2023/10/20 07:35:18;;;;;;;11.35;6.70;;;;;;;15.02;80.26;98096.44;5014524;28;20041;-43
2023/10/20 07:37:44;;;;;;;12.77;7.10;;;;;;;14.77;81.12;98109.03;5016543;28;20138;-44
2023/10/20 07:40:10;;;;;;;10.02;6.28;;;;;;;14.81;80.50;98103.56;5016487;28;20041;-46
2023/10/20 07:42:38;;;;;;;12.57;6.53;;;;;;;14.94;80.77;98107.28;5015398;28;20034;-45
2023/10/20 07:45:06;;;;;;;11.45;6.18;;;;;;;14.85;81.16;98104.28;5012329;28;20124;-46
2023/10/20 07:47:32;;;;;;;11.30;6.50;;;;;;;14.68;81.70;98105.06;5011373;28;20051;-44
2023/10/20 07:49:57;;;;;;;11.88;6.55;;;;;;;15.05;79.60;98111.19;5012114;28;20034;-45
2023/10/20 07:52:23;;;;;;;12.68;6.70;;;;;;;14.65;81.00;98104.34;5011081;28;20037;-45
2023/10/20 07:54:48;;;;;;;11.38;6.60;;;;;;;14.65;81.20;98097.34;5011931;28;20045;-44
2023/10/20 07:57:14;;;;;;;10.95;6.18;;;;;;;14.77;80.86;98098.53;5012061;28;20412;-48
2023/10/20 07:59:39;;;;;;;11.80;6.18;;;;;;;14.55;81.34;98086.44;5012780;28;20504;-46
2023/10/20 08:02:05;;;;;;;10.93;6.28;;;;;;;14.68;81.00;98085.88;5011763;28;20196;-46
2023/10/20 08:04:36;;;;;;;10.02;6.05;;;;;;;14.61;81.24;98082.69;5010855;28;20038;-49
2023/10/20 08:07:01;;;;;;;10.60;6.07;;;;;;;14.53;80.83;98072.53;5011879;28;20057;-44
2023/10/20 08:09:27;;;;;;;11.02;6.30;;;;;;;14.49;81.27;98076.25;5011219;28;20487;-45
2023/10/20 08:11:53;;;;;;;10.15;6.13;;;;;;;14.29;82.43;98073.66;5010042;28;20399;-46
2023/10/20 08:14:20;;;;;;;12.98;6.38;;;;;;;14.23;82.40;98074.78;5011152;28;20030;-52
2023/10/20 08:16:45;;;;;;;12.10;6.55;;;;;;;14.67;79.92;98050.94;5009836;28;20133;-46
2023/10/20 08:19:11;;;;;;;10.70;6.60;;;;;;;14.46;80.72;98050.16;5011496;28;20125;-52
2023/10/20 08:21:36;;;;;;;12.32;6.50;;;;;;;14.63;80.43;98061.63;5010050;28;20492;-45
2023/10/20 08:24:04;;;;;;;11.63;6.18;;;;;;;14.61;80.76;98057.31;5010267;28;20069;-49
2023/10/20 08:26:31;;;;;;;12.05;6.65;;;;;;;14.44;80.58;98053.78;5010707;28;20507;-44
2023/10/20 08:28:57;;;;;;;14.73;6.60;;;;;;;14.40;81.21;98054.84;5011068;28;20041;-45
2023/10/20 08:31:22;;;;;;;11.85;6.20;;;;;;;14.13;81.90;98056.94;5011060;28;20081;-45
2023/10/20 08:33:48;;;;;;;10.93;6.35;;;;;;;14.56;80.78;98064.56;5009602;28;20053;-46
2023/10/20 08:36:20;;;;;;;12.13;6.60;;;;;;;14.35;80.87;98056.78;5010253;28;20038;-44
2023/10/20 08:38:47;;;;;;;11.77;6.30;;;;;;;14.22;81.59;98041.66;5010944;28;20091;-47
2023/10/20 08:41:15;;;;;;;12.65;6.50;;;;;;;14.19;81.76;98041.81;5010716;28;20052;-47
2023/10/20 08:43:41;;;;;;;11.80;6.20;;;;;;;13.99;82.56;98049.72;5010610;28;20038;-46
2023/10/20 08:46:10;;;;;;;12.55;6.10;;;;;;;14.12;82.20;98052.63;5011482;28;20400;-46
2023/10/20 08:48:37;;;;;;;13.27;6.40;;;;;;;14.36;81.24;98054.13;5010665;28;20508;-51
2023/10/20 08:51:04;;;;;;;9.70;5.60;;;;;;;14.06;81.88;98055.53;5010963;28;20074;-44
2023/10/20 08:53:33;;;;;;;9.57;5.50;;;;;;;13.88;82.71;98051.13;5010143;28;20516;-45
2023/10/20 08:55:59;;;;;;;11.23;5.15;;;;;;;14.47;80.75;98057.09;5011202;28;20159;-45
2023/10/20 08:58:27;;;;;;;8.95;4.90;;;;;;;14.50;80.21;98056.97;5013268;28;20037;-45
2023/10/20 09:00:54;;;;;;;8.20;4.90;;;;;;;13.96;81.89;98049.88;5015758;28;20049;-44
2023/10/20 09:03:19;;;;;;;8.05;4.78;;;;;;;14.10;81.62;98057.06;5011076;28;20070;-45
2023/10/20 09:05:44;;;;;;;8.63;4.90;;;;;;;14.04;81.29;98055.59;5010618;28;20106;-44
2023/10/20 09:08:12;;;;;;;8.00;4.55;;;;;;;14.04;82.11;98060.81;5010737;28;20041;-44
2023/10/20 09:10:41;;;;;;;9.40;4.72;;;;;;;14.03;82.46;98058.28;5010176;28;20117;-45
2023/10/20 09:13:08;;;;;;;7.20;4.55;;;;;;;13.56;83.03;98047.28;5010667;28;20069;-47
2023/10/20 09:15:34;;;;;;;7.90;4.57;;;;;;;13.98;82.19;98057.63;5010897;28;20034;-46
2023/10/20 09:18:00;;;;;;;7.57;4.50;;;;;;;13.35;83.91;98047.31;5011052;28;20121;-47
2023/10/20 09:20:26;;;;;;;6.75;4.10;;;;;;;13.62;83.69;98063.59;5010229;28;20488;-47
2023/10/20 09:22:52;;;;;;;7.60;4.00;;;;;;;13.46;83.53;98062.56;5010080;28;20041;-46
2023/10/20 09:25:17;;;;;;;7.05;4.30;;;;;;;13.95;81.55;98060.41;5010094;28;20038;-47
2023/10/20 09:27:43;;;;;;;6.43;3.95;;;;;;;14.17;80.72;98051.50;5010436;28;20041;-46
2023/10/20 09:30:09;;;;;;;6.68;4.20;;;;;;;14.35;80.31;98047.16;5009940;28;20120;-45
2023/10/20 09:32:36;;;;;;;5.88;3.70;;;;;;;14.33;79.86;98037.69;5010531;28;20045;-44
2023/10/20 09:35:03;;;;;;;5.57;3.40;;;;;;;14.32;80.29;98031.59;5010817;28;20038;-44
2023/10/20 09:37:30;;;;;;;6.60;3.63;;;;;;;14.01;80.90;98033.94;5010014;28;20248;-46
2023/10/20 09:40:05;;;;;;;6.38;3.83;;;;;;;13.91;81.81;98053.59;5011231;28;20034;-42
2023/10/20 09:42:57;;;;;;;5.65;3.20;;;;;;;13.97;81.61;98040.22;5010068;28;20033;-44
2023/10/20 09:45:32;;;;;;;6.47;3.33;;;;;;;13.92;81.04;98029.94;5008810;28;20138;-48
2023/10/20 09:48:09;;;;;;;5.43;3.20;;;;;;;14.00;81.39;98040.94;5011227;28;20518;-44
2023/10/20 09:50:35;;;;;;;5.88;3.45;;;;;;;14.08;80.99;98037.97;5009303;28;20150;-43
2023/10/20 09:53:01;;;;;;;5.70;3.00;;;;;;;13.69;81.58;98028.38;5010509;28;20041;-43
2023/10/20 09:55:26;;;;;;;4.57;2.92;;;;;;;13.73;81.35;98026.44;5010343;28;20034;-43
2023/10/20 09:57:52;;;;;;;4.35;2.80;;;;;;;13.86;81.82;98016.28;5011544;28;20443;-46
2023/10/20 10:00:41;;;;;;;3.95;2.67;;;;;;;14.19;80.41;98002.50;5008484;28;20410;-47
2023/10/20 10:03:08;;;;;;;3.90;2.72;;;;;;;13.56;82.96;98008.88;5009904;28;20033;-42
2023/10/20 10:05:36;;;;;;;4.63;2.60;;;;;;;14.00;80.69;98006.03;5008956;28;20045;-47
2023/10/20 10:08:06;;;;;;;3.30;2.47;;;;;;;13.62;82.30;98016.47;5009960;28;20409;-47
2023/10/20 10:10:33;;;;;;;3.17;2.08;;;;;;;13.70;81.66;98008.28;5008689;28;20037;-46
2023/10/20 10:13:05;;;;;;;3.70;2.30;;;;;;;13.54;82.53;98015.13;5010033;28;20026;-48
2023/10/20 10:15:41;;;;;;;3.72;2.40;;;;;;;13.77;81.80;98010.56;5009128;28;20048;-46
2023/10/20 10:18:11;;;;;;;3.10;2.22;;;;;;;13.77;81.89;98007.94;5009834;28;20496;-46
2023/10/20 10:20:48;;;;;;;3.03;2.15;;;;;;;13.54;82.20;98009.88;5009321;28;20042;-43
2023/10/20 10:23:16;;;;;;;3.80;2.08;;;;;;;13.69;81.98;98010.03;5010039;28;20038;-43
2023/10/20 10:25:53;;;;;;;3.00;1.92;;;;;;;13.84;81.28;98015.53;5010381;28;20033;-44
2023/10/20 10:28:20;;;;;;;3.65;1.98;;;;;;;13.77;81.52;98013.19;5009202;28;20064;-46
2023/10/20 10:30:48;;;;;;;3.25;1.90;;;;;;;13.92;80.89;98003.75;5010491;28;20099;-46
2023/10/20 10:33:21;;;;;;;2.85;2.00;;;;;;;13.82;81.30;98011.19;5009272;28;20117;-52
2023/10/20 10:35:46;;;;;;;3.33;1.95;;;;;;;13.60;81.84;97997.34;5009732;28;20094;-43
2023/10/20 10:38:21;;;;;;;2.80;1.80;;;;;;;14.08;80.37;98003.91;5010049;28;20069;-44
2023/10/20 10:40:51;;;;;;;2.83;1.90;;;;;;;14.10;80.05;97995.06;5009746;28;20034;-45
2023/10/20 10:43:18;;;;;;;2.15;1.70;;;;;;;13.92;80.91;97998.53;5008928;28;20062;-44
2023/10/20 10:45:44;;;;;;;2.20;1.45;;;;;;;13.64;82.05;97995.47;5011155;28;20041;-46
2023/10/20 10:48:11;;;;;;;2.05;1.40;;;;;;;13.78;81.23;97978.19;5013410;28;20536;-48
2023/10/20 10:50:38;;;;;;;1.80;1.40;;;;;;;13.99;80.78;97978.13;5012821;28;20057;-46
2023/10/20 10:53:04;;;;;;;1.92;1.20;;;;;;;13.97;80.46;97964.25;5013188;28;20053;-47
2023/10/20 10:55:30;;;;;;;1.73;1.38;;;;;;;14.01;80.43;97960.59;5012211;28;20133;-47
2023/10/20 10:57:57;;;;;;;1.90;1.30;;;;;;;13.96;80.66;97955.56;5012081;28;20034;-45
2023/10/20 11:00:24;;;;;;;1.98;1.30;;;;;;;13.60;81.57;97955.47;5012205;28;20045;-45
2023/10/20 11:02:51;;;;;;;2.20;1.38;;;;;;;14.06;80.05;97946.34;5012754;28;20034;-49
2023/10/20 11:05:17;;;;;;;2.85;1.10;;;;;;;13.71;80.93;97941.91;5011233;28;20034;-46
2023/10/20 11:07:59;;;;;;;3.45;1.13;;;;;;;13.69;81.15;97938.50;5013152;28;20034;-49
2023/10/20 11:10:29;;;;;;;1.23;0.98;;;;;;;13.80;80.95;97942.31;5012540;28;20411;-44
2023/10/20 11:12:56;;;;;;;1.67;1.10;;;;;;;13.64;81.65;97936.09;5013021;28;20030;-44
2023/10/20 11:15:25;;;;;;;1.35;1.00;;;;;;;13.56;82.01;97932.97;5012645;28;20030;-46
2023/10/20 11:17:50;;;;;;;1.20;0.80;;;;;;;13.95;80.59;97935.53;5012648;28;20037;-46
2023/10/20 11:20:19;;;;;;;1.80;1.00;;;;;;;13.56;81.56;97919.88;5012162;28;20034;-42
2023/10/20 11:22:44;;;;;;;1.27;0.98;;;;;;;13.71;81.82;97919.19;5012136;28;20038;-45
2023/10/20 11:25:19;;;;;;;1.30;0.90;;;;;;;13.89;80.57;97914.88;5011115;28;20038;-44
2023/10/20 11:27:51;;;;;;;1.40;0.93;;;;;;;14.07;80.13;97914.00;5012009;28;20029;-47
2023/10/20 11:30:16;;;;;;;1.30;0.90;;;;;;;13.79;81.14;97905.72;5012104;28;20066;-45
2023/10/20 11:32:42;;;;;;;1.38;0.90;;;;;;;13.70;81.31;97896.56;5010914;28;20385;-45
2023/10/20 11:35:07;;;;;;;1.13;0.90;;;;;;;13.97;80.54;97896.16;5011260;28;20038;-49
2023/10/20 11:37:35;;;;;;;1.42;1.00;;;;;;;14.07;80.18;97902.69;5011982;28;20056;-46
2023/10/20 11:40:01;;;;;;;1.23;0.90;;;;;;;14.04;80.22;97894.94;5012017;28;20049;-46
2023/10/20 11:42:26;;;;;;;2.15;1.00;;;;;;;13.84;80.89;97892.44;5011945;28;20034;-44
2023/10/20 11:44:52;;;;;;;1.20;0.90;;;;;;;13.91;81.00;97902.53;5010832;28;20064;-44
2023/10/20 11:47:18;;;;;;;1.02;0.93;;;;;;;13.85;80.65;97899.34;5012146;28;20038;-41
2023/10/20 11:49:44;;;;;;;1.00;0.90;;;;;;;14.05;80.22;97900.13;5014210;28;20530;-43